King Arthur: Legenda Sabiei 3D

King Arthur: Legend of the Sword, SUA, 2017

Regia: Guy Ritchie

Cu: Charlie Hunnam, Jude Law, Eric Bana, Djimon Hounsou

Durata: 126 minute

Premiera: 19.05.2017

Distribuit de: Freeman Entertainment

Noul film al englezului Guy Ritchie (n. 1968) încearcă să reinventeze printr-un stil vizual şi narativ kinetic mitul regelui Arthur.

Tânărul Arthur (Charlie Hunnam) este privat de drepturile sale regale şi creşte în mizerie, dar Bedivere (Idris Elba), unul dintre apropiații tatălui său, devine mentorul băiatului și îl pregătește pentru a deveni viitorul cavaler neînfricat. Abia atunci când Arthur reuşeşte să scoată sabia Excalibur din stânca unde e înfiptă, legenda începe să ia contur. El devine contracandidatul lui Vortigern (Jude Law) la tron.

„A durat nu mai puțin de un an și jumătate finalizarea efectelor speciale. Am amânat premiera deja de trei ori pentru ca totul să fie optim vizual. Și sunt fericit că ne-am permis acest lux.” - Guy Ritchie

  • Hollywood Multiplex

    Astăzi - 28.05:11:15, 14:00, 16:45, 18:15, 19:30, 21:00, 22:15

    Luni - 29.05:14:00, 16:45, 18:15, 19:30, 21:00, 22:15

    Marți - 30.05:14:00, 16:45, 18:15, 19:30, 21:00, 22:15

    Miercuri - 31.05:14:00, 16:45, 18:15, 19:30, 21:00, 22:15, 23:45

    Joi - 01.06:14:00, 16:45, 18:15, 19:30, 21:00, 22:15

  • Movieplex Cinema

    Astăzi - 28.05:12:15, 12:30, 13:45, 14:45, 15:00, 16:15, 17:15, 17:30, 18:45, 19:45, 20:00, 21:15, 21:30, 22:15, 22:30

    Luni - 29.05:12:15, 13:45, 14:45, 16:15, 17:15, 18:45, 19:45, 21:30, 22:15

    Marți - 30.05:12:15, 13:45, 14:45, 16:15, 17:15, 18:45, 19:45, 21:30, 22:15

    Miercuri - 31.05:12:15, 13:45, 14:45, 16:15, 17:15, 18:45, 19:45, 21:30, 22:15

    Joi - 01.06:12:15, 13:45, 14:45, 16:15, 17:15, 18:45, 19:45, 21:30, 22:15

  • Cinema City Cotroceni

    Astăzi - 28.05:12:00, 14:30, 16:00, 16:10, 17:10, 18:40, 19:50, 21:30, 22:30

    Luni - 29.05:12:00, 14:30, 16:00, 17:10, 18:40, 19:50, 21:30, 22:30

    Marți - 30.05:12:00, 14:30, 16:00, 17:10, 18:40, 19:50, 21:30, 22:30

    Miercuri - 31.05:12:00, 14:30, 16:00, 17:10, 18:40, 19:50, 21:30, 22:30

    Joi - 01.06:12:00, 14:30, 16:00, 17:10, 18:40, 19:50, 21:20, 22:30

  • Cinema City Cotroceni (Sala VIP)

    Astăzi - 28.05:14:00, 17:40, 20:15, 22:50

    Luni - 29.05:17:40, 20:15, 22:50

    Marți - 30.05:17:40, 20:15, 22:50

    Miercuri - 31.05:17:30, 22:50

    Joi - 01.06:17:30, 22:50

  • Cinema City Sun Plaza

    Astăzi - 28.05:11:50, 14:30, 16:00, 17:10, 18:40, 19:50, 21:40, 22:20

    Luni - 29.05:14:30, 16:00, 17:10, 18:40, 19:50, 21:40, 22:20

    Marți - 30.05:14:30, 16:00, 17:10, 18:40, 19:50, 21:40, 22:20

    Miercuri - 31.05:14:30, 16:00, 17:10, 18:30, 19:50, 21:40, 22:20

    Joi - 01.06:11:50, 14:30, 16:00, 17:10, 18:30, 19:50, 21:40, 22:20

  • Cine Globe

    Astăzi - 28.05:16:15, 18:45, 21:30

    Luni - 29.05:16:15, 18:45, 21:30

    Marți - 30.05:16:15, 18:45, 21:30

    Miercuri - 31.05:16:15, 18:45, 21:30

    Joi - 01.06:16:15, 18:45, 21:30

  • Cinema City Mega Mall

    Astăzi - 28.05:11:50, 14:30, 17:00, 18:30, 19:40, 21:10, 22:10

    Luni - 29.05:14:30, 17:00, 18:30, 19:40, 21:10, 22:10

    Marți - 30.05:14:30, 17:00, 18:30, 19:40, 21:10, 22:10

    Miercuri - 31.05:14:30, 17:00, 18:30, 19:40, 21:10, 22:10

    Joi - 01.06:11:50, 14:30, 17:00, 18:30, 19:40, 21:10, 22:10

  • Grand Cinema & More

    Astăzi - 28.05:11:45, 14:30, 17:15, 18:30, 20:00, 21:15, 22:45

    Luni - 29.05:11:40, 14:25, 17:10, 18:30, 20:15, 21:15, 23:00

    Marți - 30.05:10:45, 13:30, 16:15, 18:20, 19:15, 21:15, 22:45

    Miercuri - 31.05:11:45, 14:30, 17:15, 18:30, 19:50, 21:15, 22:35

    Joi - 01.06:11:45, 14:30, 17:15, 18:30, 19:50, 21:15, 22:35

  • Cinema City Park Lake

    Astăzi - 28.05:12:10, 14:50, 17:30, 18:40, 20:10, 21:30, 22:40

    Luni - 29.05:12:10, 14:50, 17:30, 18:40, 20:10, 21:30, 22:40

    Marți - 30.05:12:10, 14:50, 17:30, 18:40, 20:10, 21:30, 22:40

    Miercuri - 31.05:12:10, 14:50, 17:30, 18:40, 20:10, 21:00, 22:40

    Joi - 01.06:12:10, 14:50, 17:30, 18:40, 20:10, 21:00, 22:40

  • Happy Cinema

    Astăzi - 28.05:17:00, 19:25

    Luni - 29.05:19:25

    Marți - 30.05:19:25

    Miercuri - 31.05:21:25

    Joi - 01.06:17:00, 19:25

  • Cinema City Park Lake Vip

    Astăzi - 28.05:13:45, 16:15